sensor_id;sensor_type;location;lat;lon;timestamp;temperature;humidity
65058;HTU21D;51644;51.068;5.860;2023-03-31T00:06:58;11.94;89.65
65058;HTU21D;51644;51.068;5.860;2023-03-31T00:07:58;11.97;89.57
65058;HTU21D;51644;51.068;5.860;2023-03-31T00:08:58;11.97;89.67
65058;HTU21D;51644;51.068;5.860;2023-03-31T00:09:59;11.98;89.68
65058;HTU21D;51644;51.068;5.860;2023-03-31T00:11:04;11.98;89.79
65058;HTU21D;51644;51.068;5.860;2023-03-31T00:12:05;11.99;89.86
65058;HTU21D;51644;51.068;5.860;2023-03-31T00:13:19;12.00;89.84
65058;HTU21D;51644;51.068;5.860;2023-03-31T00:14:24;12.01;89.79
65058;HTU21D;51644;51.068;5.860;2023-03-31T00:15:24;12.00;89.84
65058;HTU21D;51644;51.068;5.860;2023-03-31T00:16:26;12.01;89.83
65058;HTU21D;51644;51.068;5.860;2023-03-31T00:17:25;12.02;89.76
65058;HTU21D;51644;51.068;5.860;2023-03-31T00:18:24;11.98;90.18
65058;HTU21D;51644;51.068;5.860;2023-03-31T00:19:23;11.92;90.81
65058;HTU21D;51644;51.068;5.860;2023-03-31T00:20:23;11.92;90.33
65058;HTU21D;51644;51.068;5.860;2023-03-31T00:21:28;11.92;90.16
65058;HTU21D;51644;51.068;5.860;2023-03-31T00:22:31;11.93;90.33
65058;HTU21D;51644;51.068;5.860;2023-03-31T00:23:32;11.88;90.70
65058;HTU21D;51644;51.068;5.860;2023-03-31T00:24:39;11.88;90.55
65058;HTU21D;51644;51.068;5.860;2023-03-31T00:25:43;11.90;90.26
65058;HTU21D;51644;51.068;5.860;2023-03-31T00:26:42;11.93;90.27
65058;HTU21D;51644;51.068;5.860;2023-03-31T00:27:44;11.97;90.16
65058;HTU21D;51644;51.068;5.860;2023-03-31T00:28:43;11.98;90.20
65058;HTU21D;51644;51.068;5.860;2023-03-31T00:29:42;11.96;90.51
65058;HTU21D;51644;51.068;5.860;2023-03-31T00:30:42;11.97;90.43
65058;HTU21D;51644;51.068;5.860;2023-03-31T00:31:41;11.96;90.72
65058;HTU21D;51644;51.068;5.860;2023-03-31T00:32:43;11.99;90.34
65058;HTU21D;51644;51.068;5.860;2023-03-31T00:33:42;11.97;90.36
65058;HTU21D;51644;51.068;5.860;2023-03-31T00:34:41;11.98;90.22
65058;HTU21D;51644;51.068;5.860;2023-03-31T00:35:59;11.91;90.63
65058;HTU21D;51644;51.068;5.860;2023-03-31T00:37:02;11.88;90.97
65058;HTU21D;51644;51.068;5.860;2023-03-31T00:38:25;11.89;90.46
65058;HTU21D;51644;51.068;5.860;2023-03-31T00:39:31;11.88;90.61
65058;HTU21D;51644;51.068;5.860;2023-03-31T00:40:44;11.88;90.48
65058;HTU21D;51644;51.068;5.860;2023-03-31T00:41:47;11.87;90.36
65058;HTU21D;51644;51.068;5.860;2023-03-31T00:42:47;11.90;90.32
65058;HTU21D;51644;51.068;5.860;2023-03-31T00:45:43;11.88;90.48
65058;HTU21D;51644;51.068;5.860;2023-03-31T00:48:10;11.83;90.93
65058;HTU21D;51644;51.068;5.860;2023-03-31T00:49:46;11.85;90.61
65058;HTU21D;51644;51.068;5.860;2023-03-31T00:50:54;11.83;91.28
65058;HTU21D;51644;51.068;5.860;2023-03-31T00:52:00;11.76;92.10
65058;HTU21D;51644;51.068;5.860;2023-03-31T00:53:12;11.78;91.65
65058;HTU21D;51644;51.068;5.860;2023-03-31T00:54:20;11.83;91.37
65058;HTU21D;51644;51.068;5.860;2023-03-31T00:55:27;11.82;91.88
65058;HTU21D;51644;51.068;5.860;2023-03-31T00:56:33;11.83;91.50
65058;HTU21D;51644;51.068;5.860;2023-03-31T00:57:36;11.86;91.31
65058;HTU21D;51644;51.068;5.860;2023-03-31T00:58:41;11.88;91.18
65058;HTU21D;51644;51.068;5.860;2023-03-31T01:00:02;11.89;91.49
65058;HTU21D;51644;51.068;5.860;2023-03-31T01:01:23;11.88;91.78
65058;HTU21D;51644;51.068;5.860;2023-03-31T01:02:24;11.91;91.83
65058;HTU21D;51644;51.068;5.860;2023-03-31T01:03:24;11.93;91.47
65058;HTU21D;51644;51.068;5.860;2023-03-31T01:04:25;11.92;92.00
65058;HTU21D;51644;51.068;5.860;2023-03-31T01:05:42;11.90;91.92
65058;HTU21D;51644;51.068;5.860;2023-03-31T01:07:15;11.93;91.66
65058;HTU21D;51644;51.068;5.860;2023-03-31T01:08:18;11.93;91.69
65058;HTU21D;51644;51.068;5.860;2023-03-31T01:09:23;11.91;92.08
65058;HTU21D;51644;51.068;5.860;2023-03-31T01:10:24;11.93;91.82
65058;HTU21D;51644;51.068;5.860;2023-03-31T01:11:26;11.93;92.19
65058;HTU21D;51644;51.068;5.860;2023-03-31T01:12:33;11.92;92.24
65058;HTU21D;51644;51.068;5.860;2023-03-31T01:13:37;11.94;92.08
65058;HTU21D;51644;51.068;5.860;2023-03-31T01:14:40;11.94;91.67
65058;HTU21D;51644;51.068;5.860;2023-03-31T01:15:41;11.96;91.62
65058;HTU21D;51644;51.068;5.860;2023-03-31T01:16:40;11.99;91.58
65058;HTU21D;51644;51.068;5.860;2023-03-31T01:17:46;11.98;92.22
65058;HTU21D;51644;51.068;5.860;2023-03-31T01:18:49;11.99;91.96
65058;HTU21D;51644;51.068;5.860;2023-03-31T01:26:26;11.96;92.85
65058;HTU21D;51644;51.068;5.860;2023-03-31T01:27:35;11.92;93.53
65058;HTU21D;51644;51.068;5.860;2023-03-31T01:31:49;11.89;93.56
65058;HTU21D;51644;51.068;5.860;2023-03-31T01:40:34;11.87;93.40
65058;HTU21D;51644;51.068;5.860;2023-03-31T01:44:51;11.82;93.94
65058;HTU21D;51644;51.068;5.860;2023-03-31T01:46:03;11.82;93.62
65058;HTU21D;51644;51.068;5.860;2023-03-31T01:47:18;11.85;93.43
65058;HTU21D;51644;51.068;5.860;2023-03-31T01:48:41;11.79;94.16
65058;HTU21D;51644;51.068;5.860;2023-03-31T01:49:54;11.85;93.82
65058;HTU21D;51644;51.068;5.860;2023-03-31T01:51:01;11.79;93.94
65058;HTU21D;51644;51.068;5.860;2023-03-31T01:52:14;11.76;94.58
65058;HTU21D;51644;51.068;5.860;2023-03-31T01:54:47;11.78;93.76
65058;HTU21D;51644;51.068;5.860;2023-03-31T01:56:10;11.82;93.70
65058;HTU21D;51644;51.068;5.860;2023-03-31T01:57:26;11.82;93.54
65058;HTU21D;51644;51.068;5.860;2023-03-31T01:59:42;11.84;92.98
65058;HTU21D;51644;51.068;5.860;2023-03-31T02:00:59;11.79;94.37
65058;HTU21D;51644;51.068;5.860;2023-03-31T02:02:40;11.74;94.64
65058;HTU21D;51644;51.068;5.860;2023-03-31T02:03:51;11.75;94.38
65058;HTU21D;51644;51.068;5.860;2023-03-31T02:04:58;11.77;93.38
65058;HTU21D;51644;51.068;5.860;2023-03-31T02:06:04;11.76;93.79
65058;HTU21D;51644;51.068;5.860;2023-03-31T02:07:34;11.82;93.01
65058;HTU21D;51644;51.068;5.860;2023-03-31T02:08:50;11.81;93.04
65058;HTU21D;51644;51.068;5.860;2023-03-31T02:09:58;11.74;93.96
65058;HTU21D;51644;51.068;5.860;2023-03-31T02:10:59;11.72;94.01
65058;HTU21D;51644;51.068;5.860;2023-03-31T02:12:05;11.68;94.06
65058;HTU21D;51644;51.068;5.860;2023-03-31T02:13:09;11.64;94.32
65058;HTU21D;51644;51.068;5.860;2023-03-31T02:14:20;11.66;94.35
65058;HTU21D;51644;51.068;5.860;2023-03-31T02:15:24;11.64;94.13
65058;HTU21D;51644;51.068;5.860;2023-03-31T02:16:27;11.62;94.42
65058;HTU21D;51644;51.068;5.860;2023-03-31T02:17:28;11.61;94.33
65058;HTU21D;51644;51.068;5.860;2023-03-31T02:18:33;11.60;94.29
65058;HTU21D;51644;51.068;5.860;2023-03-31T02:19:39;11.64;93.62
65058;HTU21D;51644;51.068;5.860;2023-03-31T02:20:44;11.63;93.65
65058;HTU21D;51644;51.068;5.860;2023-03-31T02:21:48;11.60;94.04
65058;HTU21D;51644;51.068;5.860;2023-03-31T02:22:53;11.55;94.25
65058;HTU21D;51644;51.068;5.860;2023-03-31T02:23:53;11.57;93.72
65058;HTU21D;51644;51.068;5.860;2023-03-31T02:24:57;11.56;93.64
65058;HTU21D;51644;51.068;5.860;2023-03-31T02:26:19;11.56;93.49
65058;HTU21D;51644;51.068;5.860;2023-03-31T02:27:25;11.56;93.37
65058;HTU21D;51644;51.068;5.860;2023-03-31T02:28:27;11.53;93.61
65058;HTU21D;51644;51.068;5.860;2023-03-31T02:29:30;11.51;93.27
65058;HTU21D;51644;51.068;5.860;2023-03-31T02:32:05;11.55;92.84
65058;HTU21D;51644;51.068;5.860;2023-03-31T02:33:12;11.56;92.92
65058;HTU21D;51644;51.068;5.860;2023-03-31T02:34:11;11.51;92.98
65058;HTU21D;51644;51.068;5.860;2023-03-31T02:35:20;11.54;92.69
65058;HTU21D;51644;51.068;5.860;2023-03-31T02:36:20;11.55;92.51
65058;HTU21D;51644;51.068;5.860;2023-03-31T02:37:19;11.58;92.27
65058;HTU21D;51644;51.068;5.860;2023-03-31T02:38:35;11.53;92.58
65058;HTU21D;51644;51.068;5.860;2023-03-31T02:39:40;11.53;92.46
65058;HTU21D;51644;51.068;5.860;2023-03-31T02:40:46;11.51;92.63
65058;HTU21D;51644;51.068;5.860;2023-03-31T02:41:47;11.54;92.37
65058;HTU21D;51644;51.068;5.860;2023-03-31T02:42:47;11.55;92.20
65058;HTU21D;51644;51.068;5.860;2023-03-31T02:43:46;11.52;92.22
65058;HTU21D;51644;51.068;5.860;2023-03-31T02:44:45;11.57;91.83
65058;HTU21D;51644;51.068;5.860;2023-03-31T02:45:48;11.58;91.83
65058;HTU21D;51644;51.068;5.860;2023-03-31T02:46:48;11.56;91.66
65058;HTU21D;51644;51.068;5.860;2023-03-31T02:47:47;11.56;91.88
65058;HTU21D;51644;51.068;5.860;2023-03-31T02:48:50;11.56;91.70
65058;HTU21D;51644;51.068;5.860;2023-03-31T02:49:57;11.60;91.34
65058;HTU21D;51644;51.068;5.860;2023-03-31T02:51:29;11.56;91.69
65058;HTU21D;51644;51.068;5.860;2023-03-31T02:53:55;11.55;91.41
65058;HTU21D;51644;51.068;5.860;2023-03-31T02:56:58;11.60;90.73
65058;HTU21D;51644;51.068;5.860;2023-03-31T03:05:48;11.59;90.61
65058;HTU21D;51644;51.068;5.860;2023-03-31T03:08:33;11.47;91.44
65058;HTU21D;51644;51.068;5.860;2023-03-31T03:09:49;11.54;90.60
65058;HTU21D;51644;51.068;5.860;2023-03-31T03:10:57;11.53;90.77
65058;HTU21D;51644;51.068;5.860;2023-03-31T03:13:34;11.46;91.63
65058;HTU21D;51644;51.068;5.860;2023-03-31T03:14:43;11.44;91.43
65058;HTU21D;51644;51.068;5.860;2023-03-31T03:16:25;11.42;91.71
65058;HTU21D;51644;51.068;5.860;2023-03-31T03:17:36;11.44;91.34
65058;HTU21D;51644;51.068;5.860;2023-03-31T03:18:37;11.43;91.27
65058;HTU21D;51644;51.068;5.860;2023-03-31T03:19:35;11.46;91.13
65058;HTU21D;51644;51.068;5.860;2023-03-31T03:20:34;11.49;90.95
65058;HTU21D;51644;51.068;5.860;2023-03-31T03:21:34;11.47;91.12
65058;HTU21D;51644;51.068;5.860;2023-03-31T03:22:33;11.48;91.10
65058;HTU21D;51644;51.068;5.860;2023-03-31T03:23:32;11.51;91.02
65058;HTU21D;51644;51.068;5.860;2023-03-31T03:24:31;11.44;91.84
65058;HTU21D;51644;51.068;5.860;2023-03-31T03:25:31;11.52;90.92
65058;HTU21D;51644;51.068;5.860;2023-03-31T03:26:34;11.51;90.86
65058;HTU21D;51644;51.068;5.860;2023-03-31T03:27:43;11.46;91.24
65058;HTU21D;51644;51.068;5.860;2023-03-31T03:28:51;11.45;91.82
65058;HTU21D;51644;51.068;5.860;2023-03-31T03:29:50;11.45;91.38
65058;HTU21D;51644;51.068;5.860;2023-03-31T03:30:49;11.45;91.58
65058;HTU21D;51644;51.068;5.860;2023-03-31T03:31:48;11.44;91.53
65058;HTU21D;51644;51.068;5.860;2023-03-31T03:32:47;11.44;91.33
65058;HTU21D;51644;51.068;5.860;2023-03-31T03:33:46;11.44;91.44
65058;HTU21D;51644;51.068;5.860;2023-03-31T03:34:45;11.45;91.31
65058;HTU21D;51644;51.068;5.860;2023-03-31T03:35:43;11.47;90.95
65058;HTU21D;51644;51.068;5.860;2023-03-31T03:36:42;11.46;91.10
65058;HTU21D;51644;51.068;5.860;2023-03-31T03:37:42;11.52;90.63
65058;HTU21D;51644;51.068;5.860;2023-03-31T03:38:41;11.49;90.73
65058;HTU21D;51644;51.068;5.860;2023-03-31T03:39:40;11.53;90.34
65058;HTU21D;51644;51.068;5.860;2023-03-31T03:40:38;11.45;90.34
65058;HTU21D;51644;51.068;5.860;2023-03-31T03:41:37;11.39;90.64
65058;HTU21D;51644;51.068;5.860;2023-03-31T03:42:38;11.44;90.45
65058;HTU21D;51644;51.068;5.860;2023-03-31T03:43:37;11.46;90.53
65058;HTU21D;51644;51.068;5.860;2023-03-31T03:44:36;11.44;90.39
65058;HTU21D;51644;51.068;5.860;2023-03-31T03:45:34;11.48;90.22
65058;HTU21D;51644;51.068;5.860;2023-03-31T03:46:33;11.46;90.34
65058;HTU21D;51644;51.068;5.860;2023-03-31T03:47:32;11.43;90.10
65058;HTU21D;51644;51.068;5.860;2023-03-31T03:48:31;11.43;90.24
65058;HTU21D;51644;51.068;5.860;2023-03-31T03:49:29;11.45;89.89
65058;HTU21D;51644;51.068;5.860;2023-03-31T03:50:28;11.40;89.88
65058;HTU21D;51644;51.068;5.860;2023-03-31T03:51:27;11.44;89.76
65058;HTU21D;51644;51.068;5.860;2023-03-31T03:52:25;11.40;89.86
65058;HTU21D;51644;51.068;5.860;2023-03-31T03:53:24;11.38;90.11
65058;HTU21D;51644;51.068;5.860;2023-03-31T03:54:23;11.36;89.76
65058;HTU21D;51644;51.068;5.860;2023-03-31T03:55:21;11.36;89.71
65058;HTU21D;51644;51.068;5.860;2023-03-31T03:56:20;11.40;89.44
65058;HTU21D;51644;51.068;5.860;2023-03-31T03:57:19;11.44;89.13
65058;HTU21D;51644;51.068;5.860;2023-03-31T03:58:18;11.37;89.14
65058;HTU21D;51644;51.068;5.860;2023-03-31T03:59:17;11.37;89.34
65058;HTU21D;51644;51.068;5.860;2023-03-31T04:00:15;11.40;89.19
65058;HTU21D;51644;51.068;5.860;2023-03-31T04:01:14;11.40;88.97
65058;HTU21D;51644;51.068;5.860;2023-03-31T04:02:13;11.45;88.76
65058;HTU21D;51644;51.068;5.860;2023-03-31T04:03:12;11.43;88.73
65058;HTU21D;51644;51.068;5.860;2023-03-31T04:04:11;11.38;88.99
65058;HTU21D;51644;51.068;5.860;2023-03-31T04:05:10;11.38;88.76
65058;HTU21D;51644;51.068;5.860;2023-03-31T04:06:09;11.40;88.70
65058;HTU21D;51644;51.068;5.860;2023-03-31T04:07:07;11.42;88.37
65058;HTU21D;51644;51.068;5.860;2023-03-31T04:08:06;11.42;88.34
65058;HTU21D;51644;51.068;5.860;2023-03-31T04:09:06;11.41;88.35
65058;HTU21D;51644;51.068;5.860;2023-03-31T04:10:05;11.41;88.56
65058;HTU21D;51644;51.068;5.860;2023-03-31T04:11:14;11.42;88.45
65058;HTU21D;51644;51.068;5.860;2023-03-31T04:12:14;11.41;88.18
65058;HTU21D;51644;51.068;5.860;2023-03-31T04:13:13;11.39;87.93
65058;HTU21D;51644;51.068;5.860;2023-03-31T04:14:11;11.34;88.35
65058;HTU21D;51644;51.068;5.860;2023-03-31T04:15:10;11.36;88.20
65058;HTU21D;51644;51.068;5.860;2023-03-31T04:16:09;11.30;88.21
65058;HTU21D;51644;51.068;5.860;2023-03-31T04:17:08;11.31;88.16
65058;HTU21D;51644;51.068;5.860;2023-03-31T04:18:08;11.34;88.10
65058;HTU21D;51644;51.068;5.860;2023-03-31T04:19:20;11.36;87.99
65058;HTU21D;51644;51.068;5.860;2023-03-31T04:20:20;11.37;87.76
65058;HTU21D;51644;51.068;5.860;2023-03-31T04:21:18;11.38;87.79
65058;HTU21D;51644;51.068;5.860;2023-03-31T04:22:20;11.37;87.99
65058;HTU21D;51644;51.068;5.860;2023-03-31T04:23:19;11.38;87.62
65058;HTU21D;51644;51.068;5.860;2023-03-31T04:24:20;11.40;87.54
65058;HTU21D;51644;51.068;5.860;2023-03-31T04:25:19;11.34;88.25
65058;HTU21D;51644;51.068;5.860;2023-03-31T04:26:19;11.42;87.35
65058;HTU21D;51644;51.068;5.860;2023-03-31T04:27:28;11.40;87.87
65058;HTU21D;51644;51.068;5.860;2023-03-31T04:28:26;11.41;87.74
65058;HTU21D;51644;51.068;5.860;2023-03-31T04:29:32;11.39;87.46
65058;HTU21D;51644;51.068;5.860;2023-03-31T04:30:31;11.39;87.25
65058;HTU21D;51644;51.068;5.860;2023-03-31T04:31:30;11.42;86.94
65058;HTU21D;51644;51.068;5.860;2023-03-31T04:32:29;11.41;87.51
65058;HTU21D;51644;51.068;5.860;2023-03-31T04:33:30;11.41;86.87
65058;HTU21D;51644;51.068;5.860;2023-03-31T04:34:31;11.38;86.99
65058;HTU21D;51644;51.068;5.860;2023-03-31T04:35:33;11.32;86.66
65058;HTU21D;51644;51.068;5.860;2023-03-31T04:36:47;11.39;86.93
65058;HTU21D;51644;51.068;5.860;2023-03-31T04:37:47;11.40;86.58
65058;HTU21D;51644;51.068;5.860;2023-03-31T04:38:48;11.38;87.34
65058;HTU21D;51644;51.068;5.860;2023-03-31T04:39:51;11.43;86.67
65058;HTU21D;51644;51.068;5.860;2023-03-31T04:40:52;11.46;86.35
65058;HTU21D;51644;51.068;5.860;2023-03-31T04:41:54;11.42;86.61
65058;HTU21D;51644;51.068;5.860;2023-03-31T04:42:53;11.42;86.64
65058;HTU21D;51644;51.068;5.860;2023-03-31T04:43:52;11.43;86.61
65058;HTU21D;51644;51.068;5.860;2023-03-31T04:44:50;11.47;86.40
65058;HTU21D;51644;51.068;5.860;2023-03-31T04:45:49;11.43;86.77
65058;HTU21D;51644;51.068;5.860;2023-03-31T04:46:48;11.40;87.09
65058;HTU21D;51644;51.068;5.860;2023-03-31T04:47:46;11.38;87.39
65058;HTU21D;51644;51.068;5.860;2023-03-31T04:48:45;11.36;87.24
65058;HTU21D;51644;51.068;5.860;2023-03-31T04:49:43;11.28;87.57
65058;HTU21D;51644;51.068;5.860;2023-03-31T04:50:42;11.23;88.03
65058;HTU21D;51644;51.068;5.860;2023-03-31T04:51:41;11.30;87.32
65058;HTU21D;51644;51.068;5.860;2023-03-31T04:52:39;11.22;87.96
65058;HTU21D;51644;51.068;5.860;2023-03-31T04:53:38;11.20;87.62
65058;HTU21D;51644;51.068;5.860;2023-03-31T04:54:36;11.17;87.45
65058;HTU21D;51644;51.068;5.860;2023-03-31T04:55:35;11.18;87.92
65058;HTU21D;51644;51.068;5.860;2023-03-31T04:56:33;11.20;87.75
65058;HTU21D;51644;51.068;5.860;2023-03-31T04:57:32;11.18;88.23
65058;HTU21D;51644;51.068;5.860;2023-03-31T04:58:30;11.17;87.90
65058;HTU21D;51644;51.068;5.860;2023-03-31T04:59:29;11.18;88.32
65058;HTU21D;51644;51.068;5.860;2023-03-31T05:00:28;11.17;88.78
65058;HTU21D;51644;51.068;5.860;2023-03-31T05:01:27;11.17;88.05
65058;HTU21D;51644;51.068;5.860;2023-03-31T05:02:25;11.18;87.81
65058;HTU21D;51644;51.068;5.860;2023-03-31T05:03:24;11.19;88.17
65058;HTU21D;51644;51.068;5.860;2023-03-31T05:04:23;11.20;88.02
65058;HTU21D;51644;51.068;5.860;2023-03-31T05:05:22;11.20;88.22
65058;HTU21D;51644;51.068;5.860;2023-03-31T05:06:20;11.23;87.86
65058;HTU21D;51644;51.068;5.860;2023-03-31T05:07:19;11.17;89.56
65058;HTU21D;51644;51.068;5.860;2023-03-31T05:08:17;11.18;89.76
65058;HTU21D;51644;51.068;5.860;2023-03-31T05:09:16;11.15;90.12
65058;HTU21D;51644;51.068;5.860;2023-03-31T05:10:14;11.23;89.20
65058;HTU21D;51644;51.068;5.860;2023-03-31T05:11:13;11.08;89.75
65058;HTU21D;51644;51.068;5.860;2023-03-31T05:12:12;11.05;89.92
65058;HTU21D;51644;51.068;5.860;2023-03-31T05:13:10;11.12;88.94
65058;HTU21D;51644;51.068;5.860;2023-03-31T05:14:09;11.10;89.38
65058;HTU21D;51644;51.068;5.860;2023-03-31T05:15:08;11.09;89.72
65058;HTU21D;51644;51.068;5.860;2023-03-31T05:16:07;11.09;89.09
65058;HTU21D;51644;51.068;5.860;2023-03-31T05:17:06;11.04;89.92
65058;HTU21D;51644;51.068;5.860;2023-03-31T05:18:06;11.03;89.80
65058;HTU21D;51644;51.068;5.860;2023-03-31T05:19:04;10.99;90.60
65058;HTU21D;51644;51.068;5.860;2023-03-31T05:20:04;10.99;90.46
65058;HTU21D;51644;51.068;5.860;2023-03-31T05:21:18;10.99;90.49
65058;HTU21D;51644;51.068;5.860;2023-03-31T05:22:17;11.03;89.95
65058;HTU21D;51644;51.068;5.860;2023-03-31T05:23:17;11.03;89.83
65058;HTU21D;51644;51.068;5.860;2023-03-31T05:24:16;11.04;90.02
65058;HTU21D;51644;51.068;5.860;2023-03-31T05:25:15;10.97;90.63
65058;HTU21D;51644;51.068;5.860;2023-03-31T05:26:16;10.96;90.60
65058;HTU21D;51644;51.068;5.860;2023-03-31T05:27:14;10.99;90.29
65058;HTU21D;51644;51.068;5.860;2023-03-31T05:28:13;10.97;90.58
65058;HTU21D;51644;51.068;5.860;2023-03-31T05:29:11;11.01;90.11
65058;HTU21D;51644;51.068;5.860;2023-03-31T05:30:10;10.97;90.61
65058;HTU21D;51644;51.068;5.860;2023-03-31T05:31:10;10.98;90.55
65058;HTU21D;51644;51.068;5.860;2023-03-31T05:32:10;10.96;91.04
65058;HTU21D;51644;51.068;5.860;2023-03-31T05:33:08;10.94;90.98
65058;HTU21D;51644;51.068;5.860;2023-03-31T05:34:07;10.95;91.15
65058;HTU21D;51644;51.068;5.860;2023-03-31T05:35:06;10.97;91.06
65058;HTU21D;51644;51.068;5.860;2023-03-31T05:36:06;11.01;90.72
65058;HTU21D;51644;51.068;5.860;2023-03-31T05:37:05;11.00;90.28
65058;HTU21D;51644;51.068;5.860;2023-03-31T05:38:04;11.03;90.46
65058;HTU21D;51644;51.068;5.860;2023-03-31T05:39:04;11.01;90.57
65058;HTU21D;51644;51.068;5.860;2023-03-31T05:40:02;11.00;91.19
65058;HTU21D;51644;51.068;5.860;2023-03-31T05:41:07;11.00;91.32
65058;HTU21D;51644;51.068;5.860;2023-03-31T05:42:09;10.99;91.18
65058;HTU21D;51644;51.068;5.860;2023-03-31T05:43:07;10.99;91.40
65058;HTU21D;51644;51.068;5.860;2023-03-31T05:44:06;11.00;91.38
65058;HTU21D;51644;51.068;5.860;2023-03-31T05:45:05;11.01;92.09
65058;HTU21D;51644;51.068;5.860;2023-03-31T05:46:05;11.01;92.25
65058;HTU21D;51644;51.068;5.860;2023-03-31T05:47:03;10.97;92.98
65058;HTU21D;51644;51.068;5.860;2023-03-31T05:48:03;11.00;92.60
65058;HTU21D;51644;51.068;5.860;2023-03-31T05:49:02;11.00;92.25
65058;HTU21D;51644;51.068;5.860;2023-03-31T05:50:01;10.97;93.65
65058;HTU21D;51644;51.068;5.860;2023-03-31T05:51:04;10.96;93.43
65058;HTU21D;51644;51.068;5.860;2023-03-31T05:52:05;10.97;93.15
65058;HTU21D;51644;51.068;5.860;2023-03-31T05:53:04;11.00;92.49
65058;HTU21D;51644;51.068;5.860;2023-03-31T05:54:02;10.99;93.32
65058;HTU21D;51644;51.068;5.860;2023-03-31T05:55:01;10.98;93.63
65058;HTU21D;51644;51.068;5.860;2023-03-31T05:56:03;10.99;93.21
65058;HTU21D;51644;51.068;5.860;2023-03-31T05:57:03;10.99;93.17
65058;HTU21D;51644;51.068;5.860;2023-03-31T05:58:01;10.98;92.73
65058;HTU21D;51644;51.068;5.860;2023-03-31T05:59:00;10.96;93.91
65058;HTU21D;51644;51.068;5.860;2023-03-31T05:59:59;10.98;92.82
65058;HTU21D;51644;51.068;5.860;2023-03-31T06:01:59;10.99;92.40
65058;HTU21D;51644;51.068;5.860;2023-03-31T06:02:58;11.03;91.28
65058;HTU21D;51644;51.068;5.860;2023-03-31T06:03:57;11.01;92.03
65058;HTU21D;51644;51.068;5.860;2023-03-31T06:04:55;11.04;92.12
65058;HTU21D;51644;51.068;5.860;2023-03-31T06:05:54;11.04;92.19
65058;HTU21D;51644;51.068;5.860;2023-03-31T06:06:53;11.02;92.39
65058;HTU21D;51644;51.068;5.860;2023-03-31T06:07:53;11.00;92.75
65058;HTU21D;51644;51.068;5.860;2023-03-31T06:08:51;10.98;93.08
65058;HTU21D;51644;51.068;5.860;2023-03-31T06:09:50;11.00;92.48
65058;HTU21D;51644;51.068;5.860;2023-03-31T06:10:49;11.03;91.96
65058;HTU21D;51644;51.068;5.860;2023-03-31T06:11:47;11.02;92.24
65058;HTU21D;51644;51.068;5.860;2023-03-31T06:12:46;11.02;91.98
65058;HTU21D;51644;51.068;5.860;2023-03-31T06:13:46;11.02;92.46
65058;HTU21D;51644;51.068;5.860;2023-03-31T06:14:44;11.05;91.51
65058;HTU21D;51644;51.068;5.860;2023-03-31T06:16:53;11.10;91.39
65058;HTU21D;51644;51.068;5.860;2023-03-31T06:17:51;11.12;91.63
65058;HTU21D;51644;51.068;5.860;2023-03-31T06:18:50;11.13;91.59
65058;HTU21D;51644;51.068;5.860;2023-03-31T06:19:50;11.17;91.21
65058;HTU21D;51644;51.068;5.860;2023-03-31T06:20:50;11.13;91.80
65058;HTU21D;51644;51.068;5.860;2023-03-31T06:21:49;11.14;91.37
65058;HTU21D;51644;51.068;5.860;2023-03-31T06:22:48;11.19;90.88
65058;HTU21D;51644;51.068;5.860;2023-03-31T06:23:47;11.22;91.09
65058;HTU21D;51644;51.068;5.860;2023-03-31T06:24:46;11.27;90.79
65058;HTU21D;51644;51.068;5.860;2023-03-31T06:25:44;11.28;91.30
65058;HTU21D;51644;51.068;5.860;2023-03-31T06:26:43;11.27;91.47
65058;HTU21D;51644;51.068;5.860;2023-03-31T06:27:41;11.24;91.69
65058;HTU21D;51644;51.068;5.860;2023-03-31T06:28:40;11.29;90.94
65058;HTU21D;51644;51.068;5.860;2023-03-31T06:29:39;11.34;90.48
65058;HTU21D;51644;51.068;5.860;2023-03-31T06:30:38;11.39;90.44
65058;HTU21D;51644;51.068;5.860;2023-03-31T06:31:36;11.38;90.94
65058;HTU21D;51644;51.068;5.860;2023-03-31T06:32:35;11.38;90.52
65058;HTU21D;51644;51.068;5.860;2023-03-31T06:33:34;11.40;90.35
65058;HTU21D;51644;51.068;5.860;2023-03-31T06:34:33;11.42;90.35
65058;HTU21D;51644;51.068;5.860;2023-03-31T06:35:32;11.48;90.01
65058;HTU21D;51644;51.068;5.860;2023-03-31T06:36:31;11.53;89.84
65058;HTU21D;51644;51.068;5.860;2023-03-31T06:37:29;11.57;89.72
65058;HTU21D;51644;51.068;5.860;2023-03-31T06:38:28;11.55;89.89
65058;HTU21D;51644;51.068;5.860;2023-03-31T06:39:27;11.59;89.58
65058;HTU21D;51644;51.068;5.860;2023-03-31T06:40:25;11.61;89.48
65058;HTU21D;51644;51.068;5.860;2023-03-31T06:41:24;11.59;89.89
65058;HTU21D;51644;51.068;5.860;2023-03-31T06:42:24;11.60;89.98
65058;HTU21D;51644;51.068;5.860;2023-03-31T06:43:22;11.62;89.70
65058;HTU21D;51644;51.068;5.860;2023-03-31T06:44:21;11.63;89.38
65058;HTU21D;51644;51.068;5.860;2023-03-31T06:45:21;11.56;89.33
65058;HTU21D;51644;51.068;5.860;2023-03-31T06:46:19;11.55;89.57
65058;HTU21D;51644;51.068;5.860;2023-03-31T06:47:18;11.52;90.12
65058;HTU21D;51644;51.068;5.860;2023-03-31T06:48:16;11.51;90.44
65058;HTU21D;51644;51.068;5.860;2023-03-31T06:49:15;11.45;90.24
65058;HTU21D;51644;51.068;5.860;2023-03-31T06:50:14;11.46;89.71
65058;HTU21D;51644;51.068;5.860;2023-03-31T06:51:12;11.44;89.70
65058;HTU21D;51644;51.068;5.860;2023-03-31T06:52:11;11.41;90.01
65058;HTU21D;51644;51.068;5.860;2023-03-31T06:53:10;11.38;89.73
65058;HTU21D;51644;51.068;5.860;2023-03-31T06:54:08;11.36;90.00
65058;HTU21D;51644;51.068;5.860;2023-03-31T06:55:07;11.37;90.10
65058;HTU21D;51644;51.068;5.860;2023-03-31T06:56:09;11.39;90.40
65058;HTU21D;51644;51.068;5.860;2023-03-31T06:57:08;11.36;89.94
65058;HTU21D;51644;51.068;5.860;2023-03-31T06:58:07;11.41;89.79
65058;HTU21D;51644;51.068;5.860;2023-03-31T06:59:05;11.42;89.80
65058;HTU21D;51644;51.068;5.860;2023-03-31T07:00:04;11.45;90.08
65058;HTU21D;51644;51.068;5.860;2023-03-31T07:01:05;11.52;89.87
65058;HTU21D;51644;51.068;5.860;2023-03-31T07:02:04;11.54;89.21
65058;HTU21D;51644;51.068;5.860;2023-03-31T07:03:04;11.57;89.64
65058;HTU21D;51644;51.068;5.860;2023-03-31T07:04:03;11.58;89.25
65058;HTU21D;51644;51.068;5.860;2023-03-31T07:05:02;11.60;88.98
65058;HTU21D;51644;51.068;5.860;2023-03-31T07:06:01;11.59;88.07
65058;HTU21D;51644;51.068;5.860;2023-03-31T07:07:00;11.61;88.80
65058;HTU21D;51644;51.068;5.860;2023-03-31T07:07:59;11.62;88.82
65058;HTU21D;51644;51.068;5.860;2023-03-31T07:08:58;11.67;89.48
65058;HTU21D;51644;51.068;5.860;2023-03-31T07:09:57;11.69;88.22
65058;HTU21D;51644;51.068;5.860;2023-03-31T07:10:59;11.75;88.76
65058;HTU21D;51644;51.068;5.860;2023-03-31T07:11:58;11.81;88.57
65058;HTU21D;51644;51.068;5.860;2023-03-31T07:12:58;11.77;88.66
65058;HTU21D;51644;51.068;5.860;2023-03-31T07:13:56;11.75;88.88
65058;HTU21D;51644;51.068;5.860;2023-03-31T07:14:55;11.75;89.69
65058;HTU21D;51644;51.068;5.860;2023-03-31T07:15:57;11.81;89.97
65058;HTU21D;51644;51.068;5.860;2023-03-31T07:17:11;11.88;91.06